createdAt,value
2022-08-25T00:00:36.444Z,4.60
2022-08-25T00:01:36.436Z,4.20
2022-08-25T00:02:36.458Z,4.10
2022-08-25T00:03:39.512Z,3.80
2022-08-25T00:04:36.399Z,3.90
2022-08-25T00:05:36.422Z,4.00
2022-08-25T00:06:36.392Z,4.40
2022-08-25T00:07:36.367Z,4.30
2022-08-25T00:08:36.356Z,4.00
2022-08-25T00:09:36.346Z,3.90
2022-08-25T00:10:36.335Z,4.60
2022-08-25T00:11:36.343Z,4.40
2022-08-25T00:12:36.317Z,4.30
2022-08-25T00:13:36.303Z,4.30
2022-08-25T00:14:36.298Z,4.20
2022-08-25T00:15:36.405Z,4.10
2022-08-25T00:16:36.282Z,4.10
2022-08-25T00:17:36.266Z,3.80
2022-08-25T00:18:36.260Z,4.20
2022-08-25T00:19:36.247Z,4.50
2022-08-25T00:20:36.237Z,4.60
2022-08-25T00:21:36.259Z,4.50
2022-08-25T00:22:36.219Z,4.30
2022-08-25T00:23:36.208Z,4.10
2022-08-25T00:24:36.207Z,4.20
2022-08-25T00:25:36.191Z,4.30
2022-08-25T00:26:36.221Z,4.50
2022-08-25T00:27:36.172Z,4.30
2022-08-25T00:28:36.158Z,4.50
2022-08-25T00:29:36.153Z,4.40
2022-08-25T00:30:36.145Z,4.80
2022-08-25T00:31:37.688Z,4.60
2022-08-25T00:32:36.138Z,4.70
2022-08-25T00:33:36.116Z,4.50
2022-08-25T00:34:36.107Z,4.80
2022-08-25T00:35:36.098Z,4.50
2022-08-25T00:36:36.091Z,4.80
2022-08-25T00:37:36.093Z,4.90
2022-08-25T00:38:36.078Z,4.30
2022-08-25T00:39:36.058Z,4.20
2022-08-25T00:40:36.131Z,4.50
2022-08-25T00:41:36.043Z,4.80
2022-08-25T00:42:36.047Z,4.00
2022-08-25T00:43:36.020Z,4.30
2022-08-25T00:44:36.012Z,3.90
2022-08-25T00:45:36.005Z,4.10
2022-08-25T00:46:36.071Z,3.90
2022-08-25T00:47:36.013Z,3.90
2022-08-25T00:48:35.972Z,4.10
2022-08-25T00:49:35.962Z,4.50
2022-08-25T00:50:35.955Z,4.50
2022-08-25T00:51:35.942Z,4.40
2022-08-25T00:52:36.957Z,4.10
2022-08-25T00:53:35.926Z,4.20
2022-08-25T00:54:35.917Z,4.20
2022-08-25T00:55:35.903Z,4.00
2022-08-25T00:56:35.894Z,3.80
2022-08-25T00:57:35.904Z,4.30
2022-08-25T00:58:35.889Z,4.20
2022-08-25T00:59:35.869Z,3.90
2022-08-25T01:00:35.864Z,4.20
2022-08-25T01:01:35.968Z,4.10
2022-08-25T01:02:35.935Z,4.00
2022-08-25T01:03:35.997Z,4.10
2022-08-25T01:04:35.820Z,4.20
2022-08-25T01:05:35.815Z,4.30
2022-08-25T01:06:35.802Z,4.20
2022-08-25T01:07:35.861Z,4.20
2022-08-25T01:08:35.805Z,4.20
2022-08-25T01:09:35.771Z,4.10
2022-08-25T01:10:35.767Z,4.50
2022-08-25T01:11:35.756Z,5.20
2022-08-25T01:12:35.741Z,4.70
2022-08-25T01:13:35.748Z,4.30
2022-08-25T01:14:35.719Z,4.00
2022-08-25T01:15:35.750Z,4.30
2022-08-25T01:16:35.700Z,3.90
2022-08-25T01:17:35.698Z,4.00
2022-08-25T01:18:35.698Z,4.20
2022-08-25T01:19:35.675Z,4.20
2022-08-25T01:20:35.672Z,4.20
2022-08-25T01:21:35.658Z,4.40
2022-08-25T01:22:35.643Z,4.40
2022-08-25T01:23:35.669Z,4.70
2022-08-25T01:24:36.629Z,4.80
2022-08-25T01:25:35.613Z,4.40
2022-08-25T01:26:35.609Z,4.40
2022-08-25T01:27:35.600Z,4.10
2022-08-25T01:28:35.605Z,4.40
2022-08-25T01:29:35.577Z,4.60
2022-08-25T01:30:35.606Z,4.60
2022-08-25T01:31:35.592Z,4.40
2022-08-25T01:32:35.552Z,4.30
2022-08-25T01:33:35.599Z,4.70
2022-08-25T01:34:35.537Z,4.60
2022-08-25T01:35:35.527Z,4.60
2022-08-25T01:36:35.523Z,4.90
2022-08-25T01:37:35.509Z,4.00
2022-08-25T01:38:35.557Z,4.40
2022-08-25T01:39:35.487Z,4.60
2022-08-25T01:40:35.515Z,4.50
2022-08-25T01:41:35.547Z,4.90
2022-08-25T01:42:35.455Z,4.50
2022-08-25T01:43:35.452Z,4.80
2022-08-25T01:44:35.456Z,4.80
2022-08-25T01:45:35.426Z,4.70
2022-08-25T01:46:35.471Z,4.70
2022-08-25T01:47:35.406Z,4.70
2022-08-25T01:48:35.403Z,5.00
2022-08-25T01:49:35.416Z,4.80
2022-08-25T01:50:35.380Z,4.30
2022-08-25T01:51:35.380Z,4.60
2022-08-25T01:52:35.363Z,4.50
2022-08-25T01:53:35.353Z,4.60
2022-08-25T01:54:35.361Z,4.70
2022-08-25T01:55:35.352Z,4.90
2022-08-25T01:56:35.326Z,4.50
2022-08-25T01:57:35.314Z,4.80
2022-08-25T01:58:35.308Z,4.60
2022-08-25T01:59:35.313Z,4.50
2022-08-25T02:00:35.287Z,4.60
2022-08-25T02:01:35.352Z,5.60
2022-08-25T02:02:35.309Z,4.50
2022-08-25T02:03:35.258Z,4.50
2022-08-25T02:04:35.263Z,4.70
2022-08-25T02:05:35.242Z,4.60
2022-08-25T02:06:35.227Z,4.40
2022-08-25T02:07:35.221Z,4.60
2022-08-25T02:09:07.109Z,4.70
2022-08-25T02:09:35.236Z,4.60
2022-08-25T02:10:35.197Z,4.90
2022-08-25T02:11:35.189Z,5.00
2022-08-25T02:12:35.177Z,4.90
2022-08-25T02:13:35.166Z,4.80
2022-08-25T02:14:35.187Z,5.00
2022-08-25T02:15:35.142Z,4.90
2022-08-25T02:16:35.175Z,4.80
2022-08-25T02:17:35.121Z,5.10
2022-08-25T02:18:35.118Z,5.50
2022-08-25T02:19:35.114Z,4.70
2022-08-25T02:20:35.115Z,4.80
2022-08-25T02:21:35.084Z,4.70
2022-08-25T02:22:35.077Z,5.10
2022-08-25T02:23:35.062Z,5.00
2022-08-25T02:24:35.056Z,4.90
2022-08-25T02:25:35.065Z,4.80
2022-08-25T02:26:35.035Z,5.10
2022-08-25T02:27:35.036Z,4.90
2022-08-25T02:28:35.018Z,4.60
2022-08-25T02:29:35.009Z,5.60
2022-08-25T02:30:35.042Z,5.10
2022-08-25T02:31:34.984Z,5.20
2022-08-25T02:32:34.974Z,5.00
2022-08-25T02:33:34.968Z,4.70
2022-08-25T02:34:34.959Z,5.30
2022-08-25T02:35:34.962Z,5.00
2022-08-25T02:36:34.939Z,5.60
2022-08-25T02:37:34.926Z,5.30
2022-08-25T02:38:34.915Z,5.70
2022-08-25T02:39:34.908Z,5.30
2022-08-25T02:40:34.944Z,5.40
2022-08-25T02:41:34.882Z,5.50
2022-08-25T02:42:34.877Z,5.20
2022-08-25T02:43:34.867Z,5.40
2022-08-25T02:44:34.865Z,4.80
2022-08-25T02:45:34.913Z,5.00
2022-08-25T02:46:34.838Z,5.50
2022-08-25T02:47:34.829Z,5.20
2022-08-25T02:48:34.824Z,5.30
2022-08-25T02:49:34.812Z,5.30
2022-08-25T02:50:34.800Z,5.60
2022-08-25T02:51:34.811Z,5.20
2022-08-25T02:52:34.785Z,5.00
2022-08-25T02:53:34.776Z,5.50
2022-08-25T02:54:34.765Z,5.80
2022-08-25T02:55:34.764Z,5.10
2022-08-25T02:56:34.766Z,5.00
2022-08-25T02:57:34.737Z,5.70
2022-08-25T02:58:34.729Z,5.40
2022-08-25T02:59:34.718Z,5.50
2022-08-25T03:00:34.708Z,5.00
2022-08-25T03:01:34.754Z,5.30
2022-08-25T03:02:34.695Z,5.20
2022-08-25T03:03:39.247Z,5.10
2022-08-25T03:04:35.698Z,5.60
2022-08-25T03:05:34.662Z,5.30
2022-08-25T03:06:34.668Z,5.40
2022-08-25T03:07:35.509Z,5.60
2022-08-25T03:08:34.631Z,6.10
2022-08-25T03:09:34.623Z,5.10
2022-08-25T03:10:34.613Z,5.60
2022-08-25T03:11:34.623Z,5.10
2022-08-25T03:12:34.610Z,5.50
2022-08-25T03:13:34.586Z,5.70
2022-08-25T03:14:34.571Z,5.50
2022-08-25T03:15:34.564Z,5.60
2022-08-25T03:16:34.706Z,5.40
2022-08-25T03:17:35.597Z,5.90
2022-08-25T03:18:34.539Z,5.50
2022-08-25T03:19:34.526Z,5.80
2022-08-25T03:20:34.521Z,5.00
2022-08-25T03:21:34.545Z,5.50
2022-08-25T03:22:34.502Z,5.20
2022-08-25T03:23:34.488Z,5.60
2022-08-25T03:24:34.477Z,5.20
2022-08-25T03:25:34.472Z,5.50
2022-08-25T03:26:34.447Z,5.70
2022-08-25T03:27:35.470Z,5.90
2022-08-25T03:28:34.445Z,6.10
2022-08-25T03:29:34.435Z,6.00
2022-08-25T03:30:34.425Z,6.30
2022-08-25T03:31:34.481Z,6.30
2022-08-25T03:32:34.419Z,6.60
2022-08-25T03:33:34.395Z,6.80
2022-08-25T03:34:34.384Z,6.50
2022-08-25T03:35:34.371Z,6.50
2022-08-25T03:36:34.365Z,6.70
2022-08-25T03:37:34.371Z,6.40
2022-08-25T03:38:34.346Z,6.40
2022-08-25T03:39:34.332Z,5.80
2022-08-25T03:40:34.327Z,6.20
2022-08-25T03:41:34.314Z,6.90
2022-08-25T03:42:34.324Z,6.10
2022-08-25T03:43:34.301Z,6.60
2022-08-25T03:44:34.286Z,6.50
2022-08-25T03:45:34.320Z,6.90
2022-08-25T03:46:34.273Z,6.40
2022-08-25T03:47:34.289Z,6.10
2022-08-25T03:48:34.250Z,6.40
2022-08-25T03:49:34.254Z,6.20
2022-08-25T03:50:34.230Z,6.50
2022-08-25T03:51:34.222Z,6.40
2022-08-25T03:52:34.936Z,7.00
2022-08-25T03:53:34.201Z,6.50
2022-08-25T03:54:34.190Z,6.60
2022-08-25T03:55:34.183Z,6.50
2022-08-25T03:56:34.171Z,6.70
2022-08-25T03:57:34.163Z,6.60
2022-08-25T03:58:34.173Z,6.80
2022-08-25T03:59:34.150Z,6.80
2022-08-25T04:00:34.140Z,6.90
2022-08-25T04:01:34.174Z,7.20
2022-08-25T04:02:34.185Z,7.40
2022-08-25T04:03:34.118Z,7.10
2022-08-25T04:04:34.094Z,6.80
2022-08-25T04:05:34.086Z,6.50
2022-08-25T04:06:34.073Z,6.90
2022-08-25T04:07:34.061Z,7.30
2022-08-25T04:08:34.070Z,6.40
2022-08-25T04:09:36.809Z,6.90
2022-08-25T04:10:35.037Z,7.00
2022-08-25T04:11:34.027Z,7.10
2022-08-25T04:12:34.032Z,7.00
2022-08-25T04:13:34.026Z,6.60
2022-08-25T04:14:34.003Z,7.40
2022-08-25T04:15:33.991Z,7.80
2022-08-25T04:16:34.020Z,6.80
2022-08-25T04:17:33.970Z,7.00
2022-08-25T04:18:34.000Z,7.80
2022-08-25T04:19:33.950Z,7.60
2022-08-25T04:20:33.945Z,7.70
2022-08-25T04:21:33.931Z,6.90
2022-08-25T04:22:33.916Z,7.40
2022-08-25T04:23:34.946Z,7.30
2022-08-25T04:24:33.907Z,7.00
2022-08-25T04:25:33.892Z,6.60
2022-08-25T04:26:33.887Z,7.00
2022-08-25T04:27:33.874Z,7.20
2022-08-25T04:28:33.879Z,7.00
2022-08-25T04:29:33.873Z,6.50
2022-08-25T04:30:33.846Z,6.70
2022-08-25T04:31:33.866Z,6.90
2022-08-25T04:32:33.848Z,7.10
2022-08-25T04:33:33.826Z,6.90
2022-08-25T04:34:33.841Z,7.10
2022-08-25T04:35:33.795Z,6.30
2022-08-25T04:36:33.784Z,6.80
2022-08-25T04:37:33.771Z,6.80
2022-08-25T04:38:33.780Z,6.70
2022-08-25T04:39:33.775Z,7.00
2022-08-25T04:40:33.777Z,7.80
2022-08-25T04:41:33.739Z,7.60
2022-08-25T04:42:33.727Z,7.40
2022-08-25T04:43:33.735Z,7.50
2022-08-25T04:44:33.725Z,6.80
2022-08-25T04:45:33.726Z,7.10
2022-08-25T04:46:33.691Z,7.00
2022-08-25T04:47:33.685Z,7.20
2022-08-25T04:48:33.683Z,7.40
2022-08-25T04:49:33.680Z,7.20
2022-08-25T04:50:33.649Z,6.80
2022-08-25T04:51:33.641Z,6.90
2022-08-25T04:52:33.629Z,6.60
2022-08-25T04:53:33.638Z,7.10
2022-08-25T04:54:37.120Z,6.90
2022-08-25T04:55:33.602Z,6.40
2022-08-25T04:56:33.593Z,6.50
2022-08-25T04:57:33.584Z,6.80
2022-08-25T04:58:33.591Z,6.80
2022-08-25T04:59:33.585Z,7.40
2022-08-25T05:00:33.574Z,6.70
2022-08-25T05:01:33.545Z,6.50
2022-08-25T05:02:33.533Z,7.40
2022-08-25T05:03:33.537Z,6.80
2022-08-25T05:04:33.624Z,6.50
2022-08-25T05:05:33.848Z,6.90
2022-08-25T05:06:33.495Z,6.60
2022-08-25T05:07:33.483Z,6.10
2022-08-25T05:08:33.488Z,6.50
2022-08-25T05:09:33.491Z,6.40
2022-08-25T05:10:33.457Z,7.30
2022-08-25T05:11:33.445Z,6.70
2022-08-25T05:12:33.436Z,6.70
2022-08-25T05:13:33.443Z,6.90
2022-08-25T05:14:33.436Z,6.70
2022-08-25T05:15:33.421Z,6.30
2022-08-25T05:16:33.454Z,6.70
2022-08-25T05:17:33.388Z,6.30
2022-08-25T05:18:33.399Z,6.20
2022-08-25T05:19:33.434Z,6.50
2022-08-25T05:20:33.355Z,6.50
2022-08-25T05:21:33.364Z,6.70
2022-08-25T05:22:33.334Z,6.60
2022-08-25T05:23:33.341Z,6.60
2022-08-25T05:24:33.337Z,6.50
2022-08-25T05:25:33.307Z,6.10
2022-08-25T05:26:33.295Z,6.80
2022-08-25T05:27:33.290Z,6.50
2022-08-25T05:28:33.294Z,6.70
2022-08-25T05:29:33.291Z,7.10
2022-08-25T05:30:33.255Z,6.40
2022-08-25T05:31:33.312Z,7.00
2022-08-25T05:32:33.241Z,6.70
2022-08-25T05:33:33.247Z,6.80
2022-08-25T05:34:33.240Z,6.80
2022-08-25T05:35:33.215Z,7.00
2022-08-25T05:36:33.209Z,6.80
2022-08-25T05:37:33.207Z,7.00
2022-08-25T05:38:33.202Z,6.80
2022-08-25T05:39:33.191Z,7.40
2022-08-25T05:40:33.165Z,7.00
2022-08-25T05:41:33.150Z,6.60
2022-08-25T05:42:33.144Z,6.60
2022-08-25T05:43:33.136Z,7.10
2022-08-25T05:44:33.141Z,7.30
2022-08-25T05:45:33.149Z,7.20
2022-08-25T05:46:33.105Z,7.00
2022-08-25T05:47:33.099Z,6.90
2022-08-25T05:48:33.086Z,6.90
2022-08-25T05:49:33.097Z,6.90
2022-08-25T05:50:33.067Z,6.90
2022-08-25T05:51:33.357Z,7.00
2022-08-25T05:52:33.248Z,7.40
2022-08-25T05:53:34.000Z,6.60
2022-08-25T05:54:33.184Z,6.60
2022-08-25T05:55:33.014Z,6.80
2022-08-25T05:56:33.007Z,6.70
2022-08-25T05:57:32.997Z,6.50
2022-08-25T05:58:32.994Z,6.90
2022-08-25T05:59:32.994Z,6.50
2022-08-25T06:00:33.165Z,6.50
2022-08-25T06:01:34.092Z,6.60
2022-08-25T06:02:33.118Z,6.00
2022-08-25T06:03:33.067Z,6.50
2022-08-25T06:04:33.150Z,6.50
2022-08-25T06:05:32.921Z,6.50
2022-08-25T06:06:32.977Z,6.40
2022-08-25T06:07:32.906Z,6.60
2022-08-25T06:08:32.893Z,6.50
2022-08-25T06:09:32.909Z,6.30
2022-08-25T06:10:32.878Z,6.70
2022-08-25T06:11:32.869Z,6.90
2022-08-25T06:12:32.854Z,7.00
2022-08-25T06:13:32.850Z,6.20
2022-08-25T06:14:32.857Z,6.50
2022-08-25T06:15:32.835Z,7.10
2022-08-25T06:16:32.878Z,6.70
2022-08-25T06:17:32.814Z,6.40
2022-08-25T06:18:32.805Z,7.20
2022-08-25T06:19:32.807Z,7.20
2022-08-25T06:20:32.781Z,6.90
2022-08-25T06:21:32.779Z,6.50
2022-08-25T06:22:32.769Z,6.60
2022-08-25T06:23:32.989Z,7.20
2022-08-25T06:24:32.767Z,6.90
2022-08-25T06:25:32.754Z,7.00
2022-08-25T06:26:32.794Z,6.90
2022-08-25T06:27:32.718Z,7.20
2022-08-25T06:28:32.711Z,7.50
2022-08-25T06:29:32.716Z,7.70
2022-08-25T06:30:32.690Z,7.70
2022-08-25T06:31:32.730Z,8.00
2022-08-25T06:32:32.668Z,7.80
2022-08-25T06:33:32.674Z,7.90
2022-08-25T06:34:32.666Z,8.00
2022-08-25T06:35:32.643Z,7.90
2022-08-25T06:36:32.632Z,7.80
2022-08-25T06:37:32.622Z,8.50
2022-08-25T06:38:32.611Z,8.10
2022-08-25T06:39:32.624Z,7.60
2022-08-25T06:40:32.669Z,7.70
2022-08-25T06:41:36.884Z,7.50
2022-08-25T06:42:32.574Z,7.50
2022-08-25T06:43:32.562Z,8.00
2022-08-25T06:44:32.572Z,8.40
2022-08-25T06:45:32.545Z,8.50
2022-08-25T06:46:36.271Z,7.40
2022-08-25T06:47:32.520Z,8.10
2022-08-25T06:48:32.518Z,8.00
2022-08-25T06:49:35.982Z,8.20
2022-08-25T06:50:33.497Z,8.10
2022-08-25T06:51:32.486Z,8.60
2022-08-25T06:52:32.478Z,9.00
2022-08-25T06:53:32.466Z,8.90
2022-08-25T06:54:32.499Z,9.40
2022-08-25T06:55:32.451Z,8.30
2022-08-25T06:56:32.451Z,8.90
2022-08-25T06:57:32.432Z,8.90
2022-08-25T06:58:32.420Z,8.80
2022-08-25T06:59:32.624Z,8.60
2022-08-25T07:00:32.456Z,8.40
2022-08-25T07:01:32.542Z,8.60
2022-08-25T07:02:32.432Z,8.60
2022-08-25T07:03:32.371Z,9.40
2022-08-25T07:04:32.360Z,8.90
2022-08-25T07:05:43.406Z,9.80
2022-08-25T07:06:34.341Z,9.30
2022-08-25T07:07:43.704Z,8.80
2022-08-25T07:08:33.319Z,9.70
2022-08-25T07:09:35.226Z,9.20
2022-08-25T07:10:33.315Z,8.70
2022-08-25T07:11:32.290Z,9.30
2022-08-25T07:12:32.279Z,9.50
2022-08-25T07:13:32.271Z,10.30
2022-08-25T07:14:32.261Z,10.10
2022-08-25T07:15:32.262Z,9.50
2022-08-25T07:16:32.292Z,9.10
2022-08-25T07:17:32.232Z,9.10
2022-08-25T07:18:32.222Z,9.10
2022-08-25T07:19:32.232Z,10.20
2022-08-25T07:20:32.245Z,9.00
2022-08-25T07:21:33.592Z,8.70
2022-08-25T07:22:33.189Z,8.40
2022-08-25T07:23:32.176Z,9.20
2022-08-25T07:24:32.168Z,9.80
2022-08-25T07:25:32.184Z,9.20
2022-08-25T07:26:39.424Z,8.60
2022-08-25T07:27:34.139Z,9.60
2022-08-25T07:28:32.138Z,9.60
2022-08-25T07:29:33.255Z,9.10
2022-08-25T07:30:32.146Z,8.30
2022-08-25T07:31:32.142Z,8.50
2022-08-25T07:32:32.089Z,9.80
2022-08-25T07:33:32.079Z,8.50
2022-08-25T07:34:32.074Z,8.80
2022-08-25T07:35:37.540Z,9.00
2022-08-25T07:36:33.063Z,9.10
2022-08-25T07:37:48.092Z,9.10
2022-08-25T07:38:34.037Z,8.50
2022-08-25T07:39:32.026Z,8.80
2022-08-25T07:40:32.082Z,8.60
2022-08-25T07:41:33.034Z,9.10
2022-08-25T07:42:31.997Z,8.80
2022-08-25T07:43:31.987Z,9.70
2022-08-25T07:44:31.977Z,9.10
2022-08-25T07:45:31.966Z,9.10
2022-08-25T07:46:32.060Z,9.20
2022-08-25T07:47:31.979Z,8.90
2022-08-25T07:48:31.944Z,9.00
2022-08-25T07:49:35.704Z,9.10
2022-08-25T07:50:31.922Z,8.80
2022-08-25T07:51:31.945Z,8.30
2022-08-25T07:52:31.907Z,8.70
2022-08-25T07:53:31.912Z,9.40
2022-08-25T07:54:34.680Z,9.40
2022-08-25T07:55:31.885Z,8.50
2022-08-25T07:56:31.907Z,8.70
2022-08-25T07:57:31.860Z,8.40
2022-08-25T07:58:31.847Z,8.00
2022-08-25T07:59:39.025Z,8.50
2022-08-25T08:00:33.820Z,8.40
2022-08-25T08:01:31.896Z,8.60
2022-08-25T08:02:31.847Z,9.10
2022-08-25T08:03:45.380Z,8.90
2022-08-25T08:04:33.787Z,7.90
2022-08-25T08:05:31.777Z,9.30
2022-08-25T08:06:31.807Z,8.20
2022-08-25T08:07:42.064Z,8.10
2022-08-25T08:08:32.745Z,7.50
2022-08-25T08:09:31.761Z,8.50
2022-08-25T08:11:33.722Z,7.60
2022-08-25T08:12:31.715Z,7.90
2022-08-25T08:13:32.700Z,8.40
2022-08-25T08:14:31.690Z,7.70
2022-08-25T08:15:31.692Z,8.50
2022-08-25T08:16:31.745Z,8.40
2022-08-25T08:17:31.680Z,8.50
2022-08-25T08:18:31.664Z,8.90
2022-08-25T08:19:31.643Z,8.60
2022-08-25T08:20:31.649Z,8.60
2022-08-25T08:21:32.633Z,8.80
2022-08-25T08:22:31.631Z,8.60
2022-08-25T08:23:31.606Z,8.50
2022-08-25T08:24:44.909Z,8.00
2022-08-25T08:25:33.587Z,8.50
2022-08-25T08:26:55.352Z,7.70
2022-08-25T08:27:33.593Z,8.00
2022-08-25T08:28:31.561Z,8.10
2022-08-25T08:29:31.633Z,8.00
2022-08-25T08:30:31.540Z,8.70
2022-08-25T08:31:31.565Z,8.30
2022-08-25T08:32:46.448Z,8.20
2022-08-25T08:33:33.544Z,8.00
2022-08-25T08:34:32.505Z,7.70
2022-08-25T08:35:31.497Z,8.10
2022-08-25T08:36:31.482Z,7.60
2022-08-25T08:37:31.535Z,8.00
2022-08-25T08:38:31.464Z,7.50
2022-08-25T08:39:31.461Z,7.70
2022-08-25T08:40:31.500Z,7.50
2022-08-25T08:41:33.878Z,7.70
2022-08-25T08:42:32.469Z,7.80
2022-08-25T08:43:33.331Z,7.00
2022-08-25T08:44:32.405Z,7.70
2022-08-25T08:45:31.406Z,7.40
2022-08-25T08:46:31.430Z,7.90
2022-08-25T08:47:31.378Z,7.30
2022-08-25T08:48:31.437Z,7.10
2022-08-25T08:49:31.360Z,8.00
2022-08-25T08:50:33.177Z,7.80
2022-08-25T08:51:33.116Z,7.60
2022-08-25T08:52:31.329Z,7.80
2022-08-25T08:53:33.978Z,7.80
2022-08-25T08:54:31.309Z,8.00
2022-08-25T08:55:31.300Z,7.70
2022-08-25T08:56:31.341Z,7.60
2022-08-25T08:57:31.278Z,8.20
2022-08-25T08:58:31.268Z,8.70
2022-08-25T08:59:31.280Z,7.80
2022-08-25T09:00:31.247Z,7.80
2022-08-25T09:01:31.296Z,7.70
2022-08-25T09:02:39.163Z,7.10
2022-08-25T09:03:32.271Z,7.80
2022-08-25T09:04:31.210Z,7.50
2022-08-25T09:05:31.206Z,7.10
2022-08-25T09:06:31.204Z,7.50
2022-08-25T09:07:31.177Z,7.20
2022-08-25T09:08:31.186Z,7.10
2022-08-25T09:09:31.163Z,7.80
2022-08-25T09:10:31.144Z,7.70
2022-08-25T09:11:31.156Z,7.60
2022-08-25T09:12:31.138Z,7.50
2022-08-25T09:13:31.180Z,7.40
2022-08-25T09:14:31.116Z,6.90
2022-08-25T09:15:31.223Z,6.90
2022-08-25T09:16:34.285Z,7.50
2022-08-25T09:17:31.104Z,7.10
2022-08-25T09:18:31.103Z,7.00
2022-08-25T09:19:31.065Z,7.00
2022-08-25T09:20:31.065Z,7.00
2022-08-25T09:21:31.049Z,7.00
2022-08-25T09:22:35.497Z,6.90
2022-08-25T09:23:32.066Z,6.90
2022-08-25T09:24:31.020Z,6.50
2022-08-25T09:26:33.018Z,7.10
2022-08-25T09:27:30.991Z,7.20
2022-08-25T09:28:30.975Z,6.30
2022-08-25T09:29:30.986Z,6.50
2022-08-25T09:30:30.969Z,6.60
2022-08-25T09:31:31.011Z,7.20
2022-08-25T09:32:31.236Z,7.10
2022-08-25T09:33:30.937Z,6.90
2022-08-25T09:34:30.942Z,6.90
2022-08-25T09:35:30.916Z,6.80
2022-08-25T09:36:35.474Z,6.70
2022-08-25T09:37:32.897Z,6.80
2022-08-25T09:38:30.893Z,6.90
2022-08-25T09:39:30.895Z,7.00
2022-08-25T09:40:30.938Z,6.70
2022-08-25T09:41:30.859Z,6.80
2022-08-25T09:42:30.874Z,6.50
2022-08-25T09:43:30.843Z,6.10
2022-08-25T09:44:30.845Z,6.50
2022-08-25T09:45:30.823Z,6.80
2022-08-25T09:46:30.835Z,6.80
2022-08-25T09:47:30.806Z,6.50
2022-08-25T09:48:30.793Z,6.90
2022-08-25T09:49:30.836Z,6.80
2022-08-25T09:50:30.777Z,6.40
2022-08-25T09:51:38.251Z,6.50
2022-08-25T09:52:31.766Z,6.40
2022-08-25T09:53:33.709Z,6.60
2022-08-25T09:54:44.054Z,6.00
2022-08-25T09:55:32.486Z,6.00
2022-08-25T09:56:30.745Z,6.10
2022-08-25T09:57:30.717Z,6.30
2022-08-25T09:58:30.705Z,6.40
2022-08-25T09:59:30.936Z,6.50
2022-08-25T10:00:30.755Z,6.50
2022-08-25T10:01:34.530Z,6.20
2022-08-25T10:02:30.657Z,6.40
2022-08-25T10:03:30.652Z,6.30
2022-08-25T10:04:31.638Z,5.90
2022-08-25T10:05:30.709Z,5.90
2022-08-25T10:06:30.643Z,6.70
2022-08-25T10:07:30.615Z,6.10
2022-08-25T10:08:30.608Z,6.30
2022-08-25T10:09:30.598Z,6.50
2022-08-25T10:10:32.395Z,6.50
2022-08-25T10:11:30.582Z,6.10
2022-08-25T10:12:30.572Z,6.10
2022-08-25T10:13:30.564Z,6.10
2022-08-25T10:14:30.553Z,6.40
2022-08-25T10:15:30.806Z,6.10
2022-08-25T10:16:36.086Z,6.30
2022-08-25T10:17:33.386Z,5.70
2022-08-25T10:18:30.517Z,6.10
2022-08-25T10:19:30.513Z,6.40
2022-08-25T10:20:34.996Z,5.80
2022-08-25T10:21:30.520Z,6.60
2022-08-25T10:22:30.487Z,6.70
2022-08-25T10:23:30.658Z,6.20
2022-08-25T10:24:31.464Z,6.40
2022-08-25T10:25:30.464Z,6.10
2022-08-25T10:26:34.613Z,6.30
2022-08-25T10:27:31.444Z,6.30
2022-08-25T10:28:30.440Z,6.70
2022-08-25T10:29:30.422Z,6.40
2022-08-25T10:30:30.418Z,6.90
2022-08-25T10:31:32.908Z,6.10
2022-08-25T10:32:30.393Z,6.30
2022-08-25T10:33:30.385Z,6.20
2022-08-25T10:34:30.775Z,6.70
2022-08-25T10:35:30.368Z,6.70
2022-08-25T10:36:30.397Z,6.30
2022-08-25T10:37:32.929Z,6.80
2022-08-25T10:38:35.206Z,7.10
2022-08-25T10:39:36.267Z,6.90
2022-08-25T10:40:30.356Z,6.90
2022-08-25T10:41:30.314Z,6.60
2022-08-25T10:42:30.316Z,6.50
2022-08-25T10:43:30.288Z,6.70
2022-08-25T10:44:30.284Z,6.20
2022-08-25T10:45:30.308Z,6.30
2022-08-25T10:46:30.323Z,6.30
2022-08-25T10:47:30.271Z,6.30
2022-08-25T10:48:30.256Z,6.80
2022-08-25T10:49:30.243Z,6.70
2022-08-25T10:50:30.227Z,6.30
2022-08-25T10:51:30.221Z,6.40
2022-08-25T10:52:30.224Z,6.00
2022-08-25T10:53:30.201Z,6.10
2022-08-25T10:54:30.189Z,6.60
2022-08-25T10:55:30.175Z,6.60
2022-08-25T10:56:31.198Z,6.60
2022-08-25T10:57:30.196Z,5.90
2022-08-25T10:58:30.600Z,6.10
2022-08-25T10:59:30.146Z,6.10
2022-08-25T11:00:31.732Z,6.50
2022-08-25T11:01:34.719Z,6.90
2022-08-25T11:02:32.159Z,7.00
2022-08-25T11:03:30.111Z,6.40
2022-08-25T11:04:31.097Z,6.60
2022-08-25T11:05:30.142Z,7.30
2022-08-25T11:06:30.077Z,7.30
2022-08-25T11:07:30.080Z,7.10
2022-08-25T11:08:30.077Z,6.90
2022-08-25T11:09:30.048Z,6.80
2022-08-25T11:10:30.040Z,7.30
2022-08-25T11:11:30.030Z,7.50
2022-08-25T11:12:30.024Z,6.70
2022-08-25T11:13:30.039Z,7.10
2022-08-25T11:14:34.333Z,7.50
2022-08-25T11:15:31.145Z,7.30
2022-08-25T11:16:30.030Z,6.90
2022-08-25T11:17:29.994Z,7.60
2022-08-25T11:18:29.978Z,7.10
2022-08-25T11:19:29.957Z,6.50
2022-08-25T11:20:30.052Z,6.40
2022-08-25T11:21:29.966Z,6.50
2022-08-25T11:22:29.928Z,6.20
2022-08-25T11:23:29.932Z,7.00
2022-08-25T11:24:29.911Z,6.90
2022-08-25T11:25:29.917Z,6.50
2022-08-25T11:26:32.835Z,6.30
2022-08-25T11:27:30.883Z,6.40
2022-08-25T11:28:30.415Z,6.30
2022-08-25T11:29:29.868Z,5.90
2022-08-25T11:30:29.924Z,5.60
2022-08-25T11:31:29.864Z,5.80
2022-08-25T11:32:29.837Z,5.80
2022-08-25T11:33:29.850Z,6.20
2022-08-25T11:34:29.822Z,6.20
2022-08-25T11:35:30.821Z,6.60
2022-08-25T11:36:29.861Z,6.50
2022-08-25T11:37:29.804Z,6.10
2022-08-25T11:38:29.801Z,6.40
2022-08-25T11:39:32.962Z,6.50
2022-08-25T11:40:30.803Z,6.30
2022-08-25T11:41:29.759Z,6.20
2022-08-25T11:42:29.750Z,6.80
2022-08-25T11:43:29.786Z,6.10
2022-08-25T11:44:30.736Z,6.80
2022-08-25T11:45:29.722Z,6.00
2022-08-25T11:46:29.778Z,6.30
2022-08-25T11:47:30.709Z,6.40
2022-08-25T11:48:29.741Z,6.20
2022-08-25T11:49:29.688Z,6.30
2022-08-25T11:50:30.280Z,6.90
2022-08-25T11:51:30.962Z,7.00
2022-08-25T11:52:30.747Z,6.30
2022-08-25T11:53:30.697Z,6.40
2022-08-25T11:54:29.642Z,6.40
2022-08-25T11:55:29.637Z,6.00
2022-08-25T11:56:29.621Z,6.10
2022-08-25T11:57:29.610Z,6.00
2022-08-25T11:58:30.578Z,5.60
2022-08-25T11:59:29.611Z,5.60
2022-08-25T12:00:29.612Z,6.60
2022-08-25T12:01:29.658Z,6.70
2022-08-25T12:02:29.570Z,6.20
2022-08-25T12:03:29.558Z,6.50
2022-08-25T12:04:29.632Z,6.10
2022-08-25T12:05:29.600Z,6.50
2022-08-25T12:06:29.527Z,6.20
2022-08-25T12:07:29.518Z,6.00
2022-08-25T12:08:29.510Z,6.70
2022-08-25T12:09:29.522Z,6.50
2022-08-25T12:10:29.494Z,6.10
2022-08-25T12:11:29.483Z,6.90
2022-08-25T12:12:30.471Z,6.10
2022-08-25T12:13:29.462Z,6.70
2022-08-25T12:14:29.468Z,6.90
2022-08-25T12:15:29.443Z,6.10
2022-08-25T12:16:29.485Z,6.20
2022-08-25T12:17:29.432Z,6.30
2022-08-25T12:18:29.416Z,6.80
2022-08-25T12:19:29.441Z,6.90
2022-08-25T12:20:29.403Z,7.10
2022-08-25T12:21:29.389Z,6.90
2022-08-25T12:22:29.378Z,6.70
2022-08-25T12:23:29.364Z,7.30
2022-08-25T12:24:29.381Z,7.70
2022-08-25T12:25:30.349Z,7.70
2022-08-25T12:26:29.339Z,7.90
2022-08-25T12:27:29.336Z,7.70
2022-08-25T12:28:29.322Z,7.90
2022-08-25T12:29:30.361Z,7.40
2022-08-25T12:30:29.371Z,7.00
2022-08-25T12:31:29.314Z,7.40
2022-08-25T12:32:29.288Z,7.30
2022-08-25T12:33:29.282Z,7.10
2022-08-25T12:34:29.264Z,7.00
2022-08-25T12:35:29.594Z,7.60
2022-08-25T12:36:29.254Z,6.60
2022-08-25T12:37:29.242Z,7.20
2022-08-25T12:38:29.240Z,6.80
2022-08-25T12:39:29.221Z,6.60
2022-08-25T12:40:29.327Z,7.10
2022-08-25T12:41:30.930Z,6.50
2022-08-25T12:42:29.217Z,6.90
2022-08-25T12:43:33.408Z,6.70
2022-08-25T12:44:30.315Z,7.00
2022-08-25T12:45:29.211Z,7.20
2022-08-25T12:46:29.202Z,6.20
2022-08-25T12:47:29.155Z,6.80
2022-08-25T12:48:29.241Z,6.40
2022-08-25T12:49:29.331Z,6.90
2022-08-25T12:50:29.155Z,7.20
2022-08-25T12:51:29.127Z,7.00
2022-08-25T12:52:29.115Z,6.70
2022-08-25T12:53:29.100Z,6.30
2022-08-25T12:54:29.091Z,6.60
2022-08-25T12:55:29.215Z,6.60
2022-08-25T12:56:29.088Z,6.50
2022-08-25T12:57:29.536Z,6.00
2022-08-25T12:58:43.732Z,6.20
2022-08-25T12:59:31.115Z,6.30
2022-08-25T13:01:32.902Z,6.10
2022-08-25T13:02:30.167Z,6.80
2022-08-25T13:03:29.132Z,6.60
2022-08-25T13:04:29.001Z,6.80
2022-08-25T13:05:28.994Z,6.80
2022-08-25T13:06:28.999Z,6.20
2022-08-25T13:07:28.983Z,6.30
2022-08-25T13:08:33.701Z,5.70
2022-08-25T13:09:29.960Z,6.30
2022-08-25T13:10:28.952Z,6.00
2022-08-25T13:11:28.959Z,5.90
2022-08-25T13:12:28.934Z,6.10
2022-08-25T13:13:28.918Z,6.50
2022-08-25T13:14:28.933Z,5.90
2022-08-25T13:15:28.904Z,6.50
2022-08-25T13:16:29.890Z,6.40
2022-08-25T13:17:29.888Z,6.10
2022-08-25T13:18:28.874Z,6.40
2022-08-25T13:19:34.651Z,6.20
2022-08-25T13:20:29.871Z,6.20
2022-08-25T13:21:28.880Z,7.00